Time;durP1;ratioP1;P1;durP2;ratioP2;P2;SDS_P1;SDS_P2;PMS_P1;PMS_P2;Temp;Humidity;BMP_temperature;BMP_pressure;BME280_temperature;BME280_humidity;BME280_pressure;Samples;Min_cycle;Max_cycle;Signal;HPM_P1;HPM_P2
2023/07/09 00:00:47;;;;;;;6.90;3.50;;;;;;;;;;6326701;28;20055;-76
2023/07/09 00:03:51;;;;;;;6.22;4.05;;;;;;;;;;6327316;28;20075;-78
2023/07/09 00:06:54;;;;;;;8.32;4.65;;;;;;;;;;6328305;28;20236;-76
2023/07/09 00:09:56;;;;;;;9.63;4.13;;;;;;;;;;6327236;28;20064;-76
2023/07/09 00:12:57;;;;;;;5.93;4.25;;;;;;;;;;6328210;28;20039;-76
2023/07/09 00:16:00;;;;;;;8.00;4.28;;;;;;;;;;6328541;28;20044;-81
2023/07/09 00:19:02;;;;;;;8.73;4.50;;;;;;;;;;6326339;28;20055;-77
2023/07/09 00:22:10;;;;;;;8.02;4.40;;;;;;;;;;6328599;28;20059;-78
2023/07/09 00:25:16;;;;;;;6.60;4.10;;;;;;;;;;6326579;28;20046;-77
2023/07/09 00:28:18;;;;;;;7.65;4.53;;;;;;;;;;6328135;28;20052;-78
2023/07/09 00:31:19;;;;;;;6.05;3.88;;;;;;;;;;6325169;28;20395;-76
2023/07/09 00:34:24;;;;;;;5.72;4.22;;;;;;;;;;6328837;28;20052;-77
2023/07/09 00:37:27;;;;;;;6.35;4.15;;;;;;;;;;6325412;28;20079;-78
2023/07/09 00:40:29;;;;;;;7.70;4.15;;;;;;;;;;6328973;28;20052;-76
2023/07/09 00:43:31;;;;;;;7.70;4.00;;;;;;;;;;6326334;28;20125;-77
2023/07/09 00:46:51;;;;;;;6.67;3.70;;;;;;;;;;6326104;28;20051;-75
2023/07/09 00:50:04;;;;;;;6.07;3.72;;;;;;;;;;6327699;28;21018;-76
2023/07/09 00:53:12;;;;;;;10.10;4.22;;;;;;;;;;6326845;28;20044;-76
2023/07/09 00:56:15;;;;;;;6.70;3.67;;;;;;;;;;6325874;28;20052;-76
2023/07/09 00:59:18;;;;;;;6.95;3.60;;;;;;;;;;6325935;28;20062;-79
2023/07/09 01:02:22;;;;;;;6.68;3.70;;;;;;;;;;6326648;28;20040;-76
2023/07/09 01:05:25;;;;;;;7.70;3.70;;;;;;;;;;6324914;28;20044;-78
2023/07/09 01:08:30;;;;;;;6.00;3.80;;;;;;;;;;6326902;28;20081;-79
2023/07/09 01:11:32;;;;;;;6.95;3.75;;;;;;;;;;6325128;28;20044;-78
2023/07/09 01:14:35;;;;;;;5.72;3.65;;;;;;;;;;6327478;28;20056;-76
2023/07/09 01:17:37;;;;;;;7.85;4.30;;;;;;;;;;6326830;28;20048;-78
2023/07/09 01:20:39;;;;;;;5.25;3.58;;;;;;;;;;6325077;28;20055;-77
2023/07/09 01:23:43;;;;;;;7.13;4.00;;;;;;;;;;6325302;28;20063;-76
2023/07/09 01:26:44;;;;;;;9.48;3.92;;;;;;;;;;6324075;28;20062;-77
2023/07/09 01:29:48;;;;;;;7.07;3.55;;;;;;;;;;6325445;28;20270;-77
2023/07/09 01:32:50;;;;;;;7.22;4.40;;;;;;;;;;6325783;28;20055;-76
2023/07/09 01:35:52;;;;;;;9.32;3.70;;;;;;;;;;6326046;28;20123;-77
2023/07/09 01:38:56;;;;;;;8.52;4.07;;;;;;;;;;6325182;28;20059;-77
2023/07/09 01:41:58;;;;;;;6.93;3.78;;;;;;;;;;6326566;28;20056;-79
2023/07/09 01:45:01;;;;;;;6.88;4.15;;;;;;;;;;6325183;28;20055;-77
2023/07/09 01:48:03;;;;;;;5.95;3.80;;;;;;;;;;6327000;28;20198;-77
2023/07/09 01:51:05;;;;;;;7.60;4.80;;;;;;;;;;6326026;28;20070;-76
2023/07/09 01:54:08;;;;;;;6.43;3.83;;;;;;;;;;6324766;28;20052;-76
2023/07/09 01:57:09;;;;;;;;;;;;;;;;;;6323182;28;20062;-75
2023/07/09 02:00:13;;;;;;;10.30;4.03;;;;;;;;;;6324760;28;20554;-76
2023/07/09 02:03:16;;;;;;;6.63;4.07;;;;;;;;;;6325121;28;20055;-79
2023/07/09 02:06:19;;;;;;;;;;;;;;;;;;6326508;28;20113;-77
2023/07/09 02:09:22;;;;;;;7.97;3.95;;;;;;;;;;6323948;28;20424;-76
2023/07/09 02:12:24;;;;;;;12.00;4.30;;;;;;;;;;6325220;28;20574;-76
2023/07/09 02:15:26;;;;;;;10.30;3.70;;;;;;;;;;6319792;28;20043;-76
2023/07/09 02:18:29;;;;;;;7.00;3.78;;;;;;;;;;6327307;28;20059;-78
2023/07/09 02:21:30;;;;;;;8.50;4.15;;;;;;;;;;6325347;28;20052;-76
2023/07/09 02:24:34;;;;;;;10.27;5.13;;;;;;;;;;6326810;28;20114;-77
2023/07/09 02:27:36;;;;;;;7.05;3.83;;;;;;;;;;6325749;28;20328;-77
2023/07/09 02:30:37;;;;;;;7.45;4.47;;;;;;;;;;6322330;28;20348;-76
2023/07/09 02:33:39;;;;;;;6.10;4.28;;;;;;;;;;6324147;28;20056;-76
2023/07/09 02:36:43;;;;;;;8.00;4.55;;;;;;;;;;6323631;28;20056;-75
2023/07/09 02:39:46;;;;;;;9.75;4.90;;;;;;;;;;6324595;28;20058;-76
2023/07/09 02:42:48;;;;;;;7.68;5.07;;;;;;;;;;6324777;28;20075;-76
2023/07/09 02:45:49;;;;;;;9.55;4.88;;;;;;;;;;6324204;28;20056;-77
2023/07/09 02:48:50;;;;;;;7.22;4.80;;;;;;;;;;6325601;28;20184;-77
2023/07/09 02:51:52;;;;;;;7.75;4.63;;;;;;;;;;6326168;28;20063;-77
2023/07/09 02:54:55;;;;;;;8.73;5.03;;;;;;;;;;6322952;28;20072;-76
2023/07/09 02:57:56;;;;;;;7.90;4.70;;;;;;;;;;6324431;28;20056;-76
2023/07/09 03:00:58;;;;;;;8.65;4.47;;;;;;;;;;6323462;28;20125;-76
2023/07/09 03:04:01;;;;;;;7.82;4.75;;;;;;;;;;6324818;28;20256;-77
2023/07/09 03:07:03;;;;;;;8.77;5.22;;;;;;;;;;6324258;28;20214;-79
2023/07/09 03:10:06;;;;;;;6.75;4.47;;;;;;;;;;6330541;28;20339;-79
2023/07/09 03:13:08;;;;;;;7.85;4.43;;;;;;;;;;6328048;28;20035;-78
2023/07/09 03:16:10;;;;;;;7.40;4.85;;;;;;;;;;6330210;28;20052;-79
2023/07/09 03:19:11;;;;;;;7.45;4.70;;;;;;;;;;6328226;28;20052;-79
2023/07/09 03:22:13;;;;;;;8.20;4.50;;;;;;;;;;6329249;28;20359;-78
2023/07/09 03:25:16;;;;;;;6.00;4.38;;;;;;;;;;6328682;28;20052;-78
2023/07/09 03:28:17;;;;;;;6.57;4.25;;;;;;;;;;6328005;28;20052;-79
2023/07/09 03:31:20;;;;;;;7.93;4.53;;;;;;;;;;6328264;28;20055;-78
2023/07/09 03:34:24;;;;;;;6.53;3.97;;;;;;;;;;6328641;28;20059;-79
2023/07/09 03:37:26;;;;;;;7.93;4.43;;;;;;;;;;6326919;28;20048;-78
2023/07/09 03:40:29;;;;;;;8.48;4.13;;;;;;;;;;6328370;28;20085;-78
2023/07/09 03:43:30;;;;;;;;;;;;;;;;;;6327791;28;20063;-78
2023/07/09 03:46:32;;;;;;;7.68;4.38;;;;;;;;;;6331476;28;20428;-78
2023/07/09 03:49:33;;;;;;;9.80;4.43;;;;;;;;;;6327489;28;20044;-79
2023/07/09 03:52:35;;;;;;;6.80;3.95;;;;;;;;;;6328211;28;20283;-80
2023/07/09 03:55:38;;;;;;;6.03;3.70;;;;;;;;;;6327479;28;20527;-78
2023/07/09 03:58:39;;;;;;;6.70;4.07;;;;;;;;;;6327665;28;20060;-79
2023/07/09 04:01:44;;;;;;;8.40;4.07;;;;;;;;;;6329124;28;20075;-79
2023/07/09 04:04:45;;;;;;;7.75;4.93;;;;;;;;;;6327452;28;20244;-79
2023/07/09 04:07:47;;;;;;;5.88;3.88;;;;;;;;;;6328919;28;20048;-79
2023/07/09 04:10:50;;;;;;;9.88;4.80;;;;;;;;;;6328507;28;20063;-78
2023/07/09 04:13:51;;;;;;;7.63;3.85;;;;;;;;;;6327121;28;20085;-78
2023/07/09 04:16:53;;;;;;;6.85;4.22;;;;;;;;;;6326524;28;20363;-78
2023/07/09 04:19:54;;;;;;;7.28;4.25;;;;;;;;;;6327008;28;20063;-78
2023/07/09 04:22:57;;;;;;;8.30;5.00;;;;;;;;;;6328127;28;20067;-79
2023/07/09 04:26:03;;;;;;;5.95;4.07;;;;;;;;;;6327524;28;20066;-78
2023/07/09 04:29:05;;;;;;;8.32;4.45;;;;;;;;;;6326266;28;20059;-80
2023/07/09 04:32:07;;;;;;;8.27;4.47;;;;;;;;;;6328665;28;20400;-78
2023/07/09 04:35:11;;;;;;;7.07;4.50;;;;;;;;;;6326279;28;20052;-78
2023/07/09 04:38:13;;;;;;;6.20;3.90;;;;;;;;;;6327243;28;20060;-80
2023/07/09 04:41:16;;;;;;;6.90;3.92;;;;;;;;;;6328950;28;20158;-79
2023/07/09 04:44:18;;;;;;;8.07;4.50;;;;;;;;;;6328785;28;20063;-79
2023/07/09 04:47:19;;;;;;;6.93;4.07;;;;;;;;;;6328094;28;20311;-80
2023/07/09 04:50:21;;;;;;;8.40;4.78;;;;;;;;;;6326659;28;20047;-79
2023/07/09 04:53:23;;;;;;;6.25;4.10;;;;;;;;;;6325406;28;20049;-79
2023/07/09 04:56:29;;;;;;;6.80;4.32;;;;;;;;;;6327109;28;20063;-79
2023/07/09 04:59:32;;;;;;;8.48;4.03;;;;;;;;;;6325814;28;20056;-79
2023/07/09 05:02:34;;;;;;;6.63;4.20;;;;;;;;;;6327364;28;20248;-78
2023/07/09 05:05:35;;;;;;;6.90;4.10;;;;;;;;;;6325489;28;20060;-79
2023/07/09 05:08:37;;;;;;;5.55;3.85;;;;;;;;;;6326202;28;20401;-79
2023/07/09 05:11:40;;;;;;;6.70;4.10;;;;;;;;;;6326846;28;20070;-79
2023/07/09 05:14:41;;;;;;;7.35;4.13;;;;;;;;;;6325184;28;20604;-78
2023/07/09 05:17:43;;;;;;;6.75;3.55;;;;;;;;;;6325255;28;20063;-79
2023/07/09 05:20:44;;;;;;;7.28;4.38;;;;;;;;;;6325255;28;20337;-78
2023/07/09 05:23:46;;;;;;;7.50;4.53;;;;;;;;;;6327445;28;20328;-79
2023/07/09 05:26:49;;;;;;;7.30;4.47;;;;;;;;;;6325241;28;20233;-79
2023/07/09 05:29:50;;;;;;;6.40;3.88;;;;;;;;;;6326280;28;21065;-78
2023/07/09 05:32:53;;;;;;;7.28;4.38;;;;;;;;;;6325165;28;20076;-78
2023/07/09 05:35:55;;;;;;;6.30;3.83;;;;;;;;;;6326042;28;20056;-78
2023/07/09 05:38:57;;;;;;;6.55;3.95;;;;;;;;;;6325859;28;20043;-78
2023/07/09 05:41:59;;;;;;;8.20;3.38;;;;;;;;;;6317577;28;20054;-79
2023/07/09 05:45:01;;;;;;;6.53;3.83;;;;;;;;;;6325404;28;20394;-78
2023/07/09 05:48:02;;;;;;;7.25;4.22;;;;;;;;;;6327689;28;20036;-78
2023/07/09 05:51:04;;;;;;;6.43;3.85;;;;;;;;;;6325652;28;20055;-79
2023/07/09 05:54:06;;;;;;;6.30;3.92;;;;;;;;;;6325762;28;20040;-78
2023/07/09 05:57:08;;;;;;;7.07;4.22;;;;;;;;;;6323825;28;20044;-79
2023/07/09 06:00:11;;;;;;;8.15;4.10;;;;;;;;;;6324097;28;20051;-79
2023/07/09 06:03:14;;;;;;;6.35;4.07;;;;;;;;;;6325379;28;20051;-79
2023/07/09 06:06:17;;;;;;;7.95;4.22;;;;;;;;;;6321634;28;20328;-80
2023/07/09 06:09:18;;;;;;;6.18;3.95;;;;;;;;;;6323125;28;20079;-79
2023/07/09 06:12:21;;;;;;;6.75;3.78;;;;;;;;;;6322861;28;20052;-79
2023/07/09 06:15:23;;;;;;;5.20;3.83;;;;;;;;;;6322386;28;20044;-80
2023/07/09 06:18:28;;;;;;;7.97;3.60;;;;;;;;;;6323743;28;20059;-79
2023/07/09 06:21:30;;;;;;;7.68;4.22;;;;;;;;;;6322732;28;20123;-79
2023/07/09 06:24:32;;;;;;;9.35;4.28;;;;;;;;;;6324212;28;20262;-79
2023/07/09 06:27:35;;;;;;;7.18;4.40;;;;;;;;;;6322757;28;20067;-79
2023/07/09 06:30:37;;;;;;;7.38;4.90;;;;;;;;;;6322648;28;20489;-79
2023/07/09 06:33:39;;;;;;;7.55;4.18;;;;;;;;;;6320950;28;20056;-79
2023/07/09 06:36:40;;;;;;;7.82;4.40;;;;;;;;;;6322593;28;20067;-79
2023/07/09 06:39:42;;;;;;;7.00;4.68;;;;;;;;;;6321369;28;20356;-79
2023/07/09 06:42:44;;;;;;;9.35;4.55;;;;;;;;;;6323345;28;20055;-80
2023/07/09 06:45:50;;;;;;;7.63;3.95;;;;;;;;;;6299662;28;20047;-79
2023/07/09 06:48:51;;;;;;;10.10;4.95;;;;;;;;;;6327894;28;20075;-79
2023/07/09 06:51:53;;;;;;;6.57;4.25;;;;;;;;;;6327202;28;20048;-80
2023/07/09 06:54:54;;;;;;;7.13;4.07;;;;;;;;;;6326587;28;20075;-79
2023/07/09 06:57:57;;;;;;;9.38;4.35;;;;;;;;;;6326645;28;20232;-78
2023/07/09 07:00:59;;;;;;;8.73;4.07;;;;;;;;;;6327375;28;20056;-79
2023/07/09 07:04:00;;;;;;;7.10;4.72;;;;;;;;;;6327049;28;20063;-78
2023/07/09 07:07:03;;;;;;;5.15;3.95;;;;;;;;;;6326111;28;20047;-79
2023/07/09 07:10:05;;;;;;;7.43;4.43;;;;;;;;;;6327706;28;20063;-80
2023/07/09 07:13:08;;;;;;;8.85;4.50;;;;;;;;;;6327720;28;20113;-78
2023/07/09 07:16:10;;;;;;;6.88;4.43;;;;;;;;;;6326107;28;20044;-80
2023/07/09 07:19:11;;;;;;;6.37;4.37;;;;;;;;;;6327010;28;20269;-79
2023/07/09 07:22:13;;;;;;;8.40;4.30;;;;;;;;;;6326782;28;20351;-79
2023/07/09 07:25:15;;;;;;;6.70;4.25;;;;;;;;;;6325593;28;20278;-78
2023/07/09 07:28:18;;;;;;;10.90;4.57;;;;;;;;;;6326331;28;20064;-79
2023/07/09 07:31:19;;;;;;;;;;;;;;;;;;6326324;28;20063;-78
2023/07/09 07:34:21;;;;;;;8.20;4.18;;;;;;;;;;6327348;28;19965;-80
2023/07/09 07:37:23;;;;;;;7.40;4.47;;;;;;;;;;6325611;28;20048;-78
2023/07/09 07:40:24;;;;;;;6.68;4.32;;;;;;;;;;6326571;28;20229;-79
2023/07/09 07:43:27;;;;;;;5.45;3.95;;;;;;;;;;6324887;28;20362;-79
2023/07/09 07:46:32;;;;;;;;;;;;;;;;;;6328232;28;20067;-78
2023/07/09 07:49:33;;;;;;;6.38;3.55;;;;;;;;;;6325584;28;22128;-79
2023/07/09 07:52:37;;;;;;;7.97;3.78;;;;;;;;;;6325765;28;20051;-79
2023/07/09 07:55:38;;;;;;;10.48;4.68;;;;;;;;;;6323851;28;20063;-79
2023/07/09 07:58:41;;;;;;;6.80;4.78;;;;;;;;;;6325740;28;20071;-79
2023/07/09 08:01:43;;;;;;;6.30;4.20;;;;;;;;;;6325843;28;20063;-80
2023/07/09 08:04:44;;;;;;;8.52;4.75;;;;;;;;;;6325585;28;20235;-79
2023/07/09 08:07:46;;;;;;;8.90;4.50;;;;;;;;;;6325582;28;20067;-80
2023/07/09 08:10:47;;;;;;;6.63;4.57;;;;;;;;;;6324865;28;20258;-81
2023/07/09 08:13:50;;;;;;;6.13;3.97;;;;;;;;;;6326314;28;20097;-79
2023/07/09 08:16:52;;;;;;;8.45;4.60;;;;;;;;;;6324268;28;20052;-79
2023/07/09 08:19:55;;;;;;;8.20;4.60;;;;;;;;;;6325486;28;20389;-79
2023/07/09 08:22:56;;;;;;;11.48;4.82;;;;;;;;;;6324697;28;20043;-78
2023/07/09 08:25:58;;;;;;;9.48;4.53;;;;;;;;;;6325628;28;20240;-80
2023/07/09 08:29:01;;;;;;;8.23;4.82;;;;;;;;;;6324921;28;20291;-81
2023/07/09 08:32:03;;;;;;;7.05;4.28;;;;;;;;;;6326115;28;20058;-79
2023/07/09 08:35:04;;;;;;;6.53;4.07;;;;;;;;;;6324761;28;20094;-80
2023/07/09 08:38:06;;;;;;;7.32;4.13;;;;;;;;;;6325044;28;20051;-78
2023/07/09 08:41:09;;;;;;;8.90;4.97;;;;;;;;;;6326799;28;20078;-78
2023/07/09 08:44:21;;;;;;;6.57;4.40;;;;;;;;;;6324049;28;20052;-78
2023/07/09 08:47:26;;;;;;;5.82;4.60;;;;;;;;;;6323856;28;20055;-81
2023/07/09 08:50:31;;;;;;;6.03;4.30;;;;;;;;;;6326162;28;20051;-79
2023/07/09 08:53:34;;;;;;;8.88;4.40;;;;;;;;;;6325329;28;20056;-80
2023/07/09 08:56:36;;;;;;;6.38;4.72;;;;;;;;;;6324681;28;20067;-78
2023/07/09 08:59:39;;;;;;;6.22;4.60;;;;;;;;;;6305132;28;20112;-79
2023/07/09 09:02:45;;;;;;;8.32;5.40;;;;;;;;;;6300046;28;20057;-79
2023/07/09 09:05:49;;;;;;;7.72;5.38;;;;;;;;;;6299800;28;20069;-80
2023/07/09 09:08:59;;;;;;;6.50;5.00;;;;;;;;;;6300201;28;20455;-79
2023/07/09 09:12:03;;;;;;;6.65;4.85;;;;;;;;;;6300354;28;20075;-80
2023/07/09 09:15:17;;;;;;;6.93;4.63;;;;;;;;;;6299177;28;20402;-81
2023/07/09 09:18:20;;;;;;;6.70;4.75;;;;;;;;;;6299167;28;20060;-79
2023/07/09 09:21:24;;;;;;;7.22;5.43;;;;;;;;;;6298994;28;20106;-81
2023/07/09 09:24:28;;;;;;;8.13;4.75;;;;;;;;;;6301867;28;20068;-80
2023/07/09 09:27:30;;;;;;;9.15;5.10;;;;;;;;;;6299634;28;20625;-78
2023/07/09 09:30:33;;;;;;;6.60;4.95;;;;;;;;;;6300348;28;20056;-79
2023/07/09 09:33:38;;;;;;;6.85;4.60;;;;;;;;;;6299122;28;20056;-80
2023/07/09 09:36:40;;;;;;;5.18;4.35;;;;;;;;;;6299199;28;20060;-79
2023/07/09 09:39:41;;;;;;;9.02;4.60;;;;;;;;;;6301680;28;20248;-80
2023/07/09 09:42:43;;;;;;;6.50;4.00;;;;;;;;;;6300216;28;20076;-78
2023/07/09 09:45:48;;;;;;;4.80;4.07;;;;;;;;;;6298946;28;20336;-79
2023/07/09 09:48:51;;;;;;;6.28;3.97;;;;;;;;;;6299556;28;20118;-80
2023/07/09 09:51:55;;;;;;;5.53;3.88;;;;;;;;;;6298849;28;20098;-79
2023/07/09 09:55:02;;;;;;;5.57;3.50;;;;;;;;;;6298467;28;20109;-79
2023/07/09 09:58:03;;;;;;;8.02;4.05;;;;;;;;;;6304528;28;20063;-80
2023/07/09 10:01:06;;;;;;;6.03;4.60;;;;;;;;;;6323423;28;20509;-79
2023/07/09 10:04:11;;;;;;;5.10;4.18;;;;;;;;;;6322587;28;20097;-80
2023/07/09 10:07:18;;;;;;;5.13;4.05;;;;;;;;;;6321839;28;20320;-79
2023/07/09 10:10:21;;;;;;;6.38;4.72;;;;;;;;;;6322329;28;20044;-80
2023/07/09 10:13:28;;;;;;;5.53;4.50;;;;;;;;;;6322157;28;20070;-81
2023/07/09 10:16:36;;;;;;;5.95;4.32;;;;;;;;;;6322042;28;20221;-79
2023/07/09 10:19:44;;;;;;;7.07;4.10;;;;;;;;;;6320957;28;20051;-78
2023/07/09 10:22:49;;;;;;;6.82;4.38;;;;;;;;;;6322761;28;20055;-79
2023/07/09 10:25:54;;;;;;;5.80;4.15;;;;;;;;;;6322276;28;20059;-79
2023/07/09 10:29:02;;;;;;;8.18;4.70;;;;;;;;;;6322778;28;20074;-79
2023/07/09 10:32:09;;;;;;;4.82;3.90;;;;;;;;;;6322553;28;20052;-78
2023/07/09 10:35:15;;;;;;;5.93;3.67;;;;;;;;;;6321101;28;20047;-78
2023/07/09 10:38:23;;;;;;;7.28;4.00;;;;;;;;;;6321182;28;20248;-78
2023/07/09 10:41:26;;;;;;;5.53;3.92;;;;;;;;;;6324058;28;20055;-80
2023/07/09 10:44:30;;;;;;;7.55;4.40;;;;;;;;;;6322290;28;20052;-79
2023/07/09 10:47:35;;;;;;;6.63;4.32;;;;;;;;;;6322601;28;20162;-77
2023/07/09 10:50:38;;;;;;;5.63;4.22;;;;;;;;;;6321557;28;20056;-81
2023/07/09 10:53:44;;;;;;;8.45;4.18;;;;;;;;;;6324044;28;20459;-77
2023/07/09 10:56:47;;;;;;;7.80;4.15;;;;;;;;;;6322071;28;20340;-81
2023/07/09 10:59:50;;;;;;;6.82;4.10;;;;;;;;;;6301897;28;21747;-80
2023/07/09 11:02:59;;;;;;;6.75;3.85;;;;;;;;;;6296616;28;20078;-78
2023/07/09 11:06:00;;;;;;;6.13;4.15;;;;;;;;;;6296929;28;20052;-78
2023/07/09 11:09:02;;;;;;;4.63;3.85;;;;;;;;;;6296167;28;20230;-78
2023/07/09 11:12:06;;;;;;;6.60;4.43;;;;;;;;;;6297235;28;20051;-78
2023/07/09 11:15:11;;;;;;;5.70;3.72;;;;;;;;;;6296785;28;20048;-78
2023/07/09 11:18:17;;;;;;;5.82;4.05;;;;;;;;;;6296888;28;20325;-80
2023/07/09 11:21:19;;;;;;;4.82;3.75;;;;;;;;;;6296704;28;20044;-78
2023/07/09 11:24:30;;;;;;;7.00;5.25;;;;;;;;;;6298106;28;20272;-78
2023/07/09 11:27:32;;;;;;;7.32;5.13;;;;;;;;;;6296932;28;20419;-80
2023/07/09 11:30:34;;;;;;;5.25;4.20;;;;;;;;;;6300850;28;20063;-80
2023/07/09 11:33:48;;;;;;;7.32;4.85;;;;;;;;;;6300274;28;20380;-80
2023/07/09 11:36:51;;;;;;;6.40;4.68;;;;;;;;;;6300381;28;20422;-80
2023/07/09 11:39:53;;;;;;;7.88;5.05;;;;;;;;;;6301413;28;20059;-80
2023/07/09 11:42:55;;;;;;;5.82;4.43;;;;;;;;;;6300854;28;20281;-80
2023/07/09 11:45:58;;;;;;;9.10;5.35;;;;;;;;;;6302069;28;20098;-80
2023/07/09 11:49:02;;;;;;;11.68;5.65;;;;;;;;;;6299962;28;20067;-80
2023/07/09 11:52:05;;;;;;;8.57;6.00;;;;;;;;;;6301701;28;20055;-79
2023/07/09 11:55:20;;;;;;;7.88;6.30;;;;;;;;;;6301860;28;20064;-80
2023/07/09 11:58:21;;;;;;;9.52;5.70;;;;;;;;;;6309553;28;20052;-80
2023/07/09 12:01:24;;;;;;;8.35;5.55;;;;;;;;;;6325178;28;20055;-80
2023/07/09 12:04:31;;;;;;;9.07;5.20;;;;;;;;;;6324444;28;20048;-79
2023/07/09 12:07:33;;;;;;;9.38;5.68;;;;;;;;;;6324770;28;20362;-80
2023/07/09 12:10:35;;;;;;;8.82;5.00;;;;;;;;;;6324977;28;20114;-80
2023/07/09 12:13:37;;;;;;;6.07;4.50;;;;;;;;;;6324919;28;20048;-79
2023/07/09 12:16:40;;;;;;;8.20;5.38;;;;;;;;;;6325202;28;20052;-80
2023/07/09 12:19:42;;;;;;;8.35;5.60;;;;;;;;;;6325445;28;20055;-79
2023/07/09 12:22:44;;;;;;;7.22;5.05;;;;;;;;;;6325502;28;20391;-80
2023/07/09 12:25:48;;;;;;;7.03;4.70;;;;;;;;;;6324938;28;20059;-82
2023/07/09 12:28:53;;;;;;;8.48;4.93;;;;;;;;;;6324123;28;20056;-79
2023/07/09 12:31:56;;;;;;;6.25;4.72;;;;;;;;;;6323943;28;20500;-80
2023/07/09 12:35:00;;;;;;;6.60;4.57;;;;;;;;;;6324113;28;20055;-82
2023/07/09 12:38:02;;;;;;;7.72;4.82;;;;;;;;;;6324959;28;20048;-79
2023/07/09 12:41:04;;;;;;;7.57;5.00;;;;;;;;;;6324543;28;20051;-80
2023/07/09 12:44:06;;;;;;;5.57;4.43;;;;;;;;;;6326236;28;20101;-79
2023/07/09 12:47:13;;;;;;;5.63;4.20;;;;;;;;;;6324940;28;20052;-80
2023/07/09 12:50:30;;;;;;;7.90;5.15;;;;;;;;;;6324954;28;20048;-80
2023/07/09 12:53:32;;;;;;;6.28;4.35;;;;;;;;;;6324474;28;20058;-78
2023/07/09 12:56:35;;;;;;;5.85;4.78;;;;;;;;;;6324144;28;20059;-77
2023/07/09 12:59:39;;;;;;;7.05;4.30;;;;;;;;;;6323884;28;20059;-78
2023/07/09 13:02:40;;;;;;;8.10;4.82;;;;;;;;;;6323624;28;20300;-79
2023/07/09 13:05:53;;;;;;;6.70;4.60;;;;;;;;;;6323974;28;20333;-78
2023/07/09 13:08:57;;;;;;;6.22;4.30;;;;;;;;;;6322743;28;20060;-78
2023/07/09 13:11:58;;;;;;;6.05;4.70;;;;;;;;;;6324356;28;20043;-80
2023/07/09 13:15:00;;;;;;;5.93;4.80;;;;;;;;;;6322510;28;20055;-78
2023/07/09 13:18:04;;;;;;;6.50;4.50;;;;;;;;;;6324639;28;20177;-79
2023/07/09 13:21:14;;;;;;;7.43;5.25;;;;;;;;;;6323252;28;20172;-79
2023/07/09 13:24:21;;;;;;;7.90;4.72;;;;;;;;;;6328017;28;20044;-79
2023/07/09 13:27:24;;;;;;;7.22;4.60;;;;;;;;;;6323405;28;20119;-79
2023/07/09 13:30:25;;;;;;;6.80;4.40;;;;;;;;;;6323362;28;20059;-79
2023/07/09 13:33:27;;;;;;;5.88;4.38;;;;;;;;;;6323145;28;20054;-79
2023/07/09 13:36:28;;;;;;;;;;;;;;;;;;6323848;28;20370;-80
2023/07/09 13:39:31;;;;;;;5.32;4.13;;;;;;;;;;6324921;28;19970;-80
2023/07/09 13:42:32;;;;;;;6.55;4.40;;;;;;;;;;6323808;28;20266;-78
2023/07/09 13:45:34;;;;;;;5.55;4.10;;;;;;;;;;6321896;28;20052;-80
2023/07/09 13:48:36;;;;;;;7.20;4.70;;;;;;;;;;6325720;28;20216;-78
2023/07/09 13:51:38;;;;;;;8.13;4.30;;;;;;;;;;6322282;28;20067;-78
2023/07/09 13:54:41;;;;;;;7.55;4.57;;;;;;;;;;6322615;28;20052;-81
2023/07/09 13:57:43;;;;;;;4.47;3.88;;;;;;;;;;6321990;28;20052;-79
2023/07/09 14:00:46;;;;;;;4.75;4.00;;;;;;;;;;6322247;28;20062;-78
2023/07/09 14:03:47;;;;;;;6.82;3.80;;;;;;;;;;6323762;28;20059;-78
2023/07/09 14:06:49;;;;;;;7.05;3.72;;;;;;;;;;6321875;28;20328;-78
2023/07/09 14:09:52;;;;;;;6.68;4.30;;;;;;;;;;6323176;28;20187;-78
2023/07/09 14:12:53;;;;;;;4.93;3.80;;;;;;;;;;6322420;28;20060;-78
2023/07/09 14:15:54;;;;;;;4.72;3.92;;;;;;;;;;6323905;28;20063;-78
2023/07/09 14:18:56;;;;;;;4.70;3.55;;;;;;;;;;6322058;28;20055;-79
2023/07/09 14:21:58;;;;;;;7.65;3.85;;;;;;;;;;6324434;28;20147;-78
2023/07/09 14:25:01;;;;;;;6.55;3.65;;;;;;;;;;6326082;28;20056;-78
2023/07/09 14:28:09;;;;;;;7.30;4.40;;;;;;;;;;6322657;28;20709;-77
2023/07/09 14:31:18;;;;;;;9.15;5.07;;;;;;;;;;6322346;28;20272;-78
2023/07/09 14:34:21;;;;;;;5.57;3.80;;;;;;;;;;6323333;28;20135;-81
2023/07/09 14:37:23;;;;;;;5.03;4.07;;;;;;;;;;6321724;28;20294;-79
2023/07/09 14:40:26;;;;;;;4.82;4.22;;;;;;;;;;6322259;28;20059;-79
2023/07/09 14:43:27;;;;;;;6.43;4.07;;;;;;;;;;6322186;28;20074;-77
2023/07/09 14:46:29;;;;;;;7.32;4.30;;;;;;;;;;6324280;28;20052;-77
2023/07/09 14:49:31;;;;;;;7.38;4.32;;;;;;;;;;6321644;28;20066;-81
2023/07/09 14:52:33;;;;;;;4.50;3.55;;;;;;;;;;6323328;28;20060;-78
2023/07/09 14:55:35;;;;;;;7.78;4.30;;;;;;;;;;6321075;28;20098;-78
2023/07/09 14:58:37;;;;;;;5.63;4.07;;;;;;;;;;6314978;28;20290;-78
2023/07/09 15:01:38;;;;;;;8.73;4.07;;;;;;;;;;6305355;28;20609;-78
2023/07/09 15:04:40;;;;;;;8.97;4.20;;;;;;;;;;6307349;28;20052;-77
2023/07/09 15:07:41;;;;;;;5.97;4.03;;;;;;;;;;6308070;28;20060;-80
2023/07/09 15:10:45;;;;;;;12.17;4.60;;;;;;;;;;6312015;28;20056;-80
2023/07/09 15:13:47;;;;;;;6.75;4.20;;;;;;;;;;6310127;28;20059;-79
2023/07/09 15:16:50;;;;;;;5.45;4.10;;;;;;;;;;6308104;28;20410;-79
2023/07/09 15:19:51;;;;;;;10.18;4.18;;;;;;;;;;6308387;28;20076;-78
2023/07/09 15:22:52;;;;;;;6.15;4.47;;;;;;;;;;6310102;28;20340;-77
2023/07/09 15:25:55;;;;;;;6.27;3.73;;;;;;;;;;6310427;28;20096;-78
2023/07/09 15:28:59;;;;;;;6.60;3.97;;;;;;;;;;6308619;28;20060;-81
2023/07/09 15:32:01;;;;;;;6.28;4.15;;;;;;;;;;6305724;28;20051;-77
2023/07/09 15:35:02;;;;;;;5.60;3.83;;;;;;;;;;6303477;28;20060;-80
2023/07/09 15:38:11;;;;;;;7.93;4.20;;;;;;;;;;6302871;28;20036;-81
2023/07/09 15:41:14;;;;;;;5.78;3.97;;;;;;;;;;6303249;28;20060;-80
2023/07/09 15:44:17;;;;;;;5.70;4.32;;;;;;;;;;6305313;28;20170;-81
2023/07/09 15:47:20;;;;;;;6.05;4.07;;;;;;;;;;6301700;28;20060;-81
2023/07/09 15:50:24;;;;;;;4.85;3.63;;;;;;;;;;6303918;28;20068;-80
2023/07/09 15:53:26;;;;;;;6.00;4.25;;;;;;;;;;6301981;28;20059;-78
2023/07/09 15:56:29;;;;;;;6.88;4.18;;;;;;;;;;6303103;28;20052;-81
2023/07/09 15:59:32;;;;;;;5.47;3.95;;;;;;;;;;6321366;28;20044;-78
2023/07/09 16:02:34;;;;;;;5.03;3.58;;;;;;;;;;6328349;28;20059;-78
2023/07/09 16:05:37;;;;;;;5.57;3.17;;;;;;;;;;6327679;28;20063;-78
2023/07/09 16:08:39;;;;;;;7.75;4.15;;;;;;;;;;6327873;28;20060;-79
2023/07/09 16:11:44;;;;;;;6.77;3.60;;;;;;;;;;6328205;28;20112;-78
2023/07/09 16:14:45;;;;;;;6.47;3.47;;;;;;;;;;6328370;28;20044;-78
2023/07/09 16:17:47;;;;;;;3.42;2.95;;;;;;;;;;6327912;28;20052;-79
2023/07/09 16:20:49;;;;;;;6.07;2.80;;;;;;;;;;6328362;28;20106;-78
2023/07/09 16:23:53;;;;;;;5.13;2.93;;;;;;;;;;6328059;28;20059;-77
2023/07/09 16:26:56;;;;;;;5.72;3.53;;;;;;;;;;6326904;28;20052;-77
2023/07/09 16:29:58;;;;;;;4.38;2.90;;;;;;;;;;6326873;28;20240;-78
2023/07/09 16:33:02;;;;;;;8.52;2.92;;;;;;;;;;6327034;28;20056;-78
2023/07/09 16:36:05;;;;;;;7.63;3.00;;;;;;;;;;6327850;28;20075;-79
2023/07/09 16:39:23;;;;;;;6.55;2.78;;;;;;;;;;6328153;28;20051;-77
2023/07/09 16:42:26;;;;;;;5.97;2.90;;;;;;;;;;6326893;28;20047;-78
2023/07/09 16:45:28;;;;;;;5.72;2.95;;;;;;;;;;6326243;28;20040;-77
2023/07/09 16:48:30;;;;;;;8.50;2.92;;;;;;;;;;6329181;28;20351;-80
2023/07/09 16:51:31;;;;;;;5.50;2.92;;;;;;;;;;6325945;28;20076;-80
2023/07/09 16:54:33;;;;;;;7.75;2.85;;;;;;;;;;6327201;28;20060;-79
2023/07/09 16:57:36;;;;;;;8.47;3.50;;;;;;;;;;6325264;28;20214;-80
2023/07/09 17:00:37;;;;;;;6.20;3.60;;;;;;;;;;6326695;28;20055;-80
2023/07/09 17:03:39;;;;;;;4.53;3.28;;;;;;;;;;6326922;28;20056;-80
2023/07/09 17:06:42;;;;;;;4.18;3.10;;;;;;;;;;6328173;28;20271;-81
2023/07/09 17:09:44;;;;;;;8.25;3.38;;;;;;;;;;6326591;28;20344;-81
2023/07/09 17:12:47;;;;;;;6.63;3.93;;;;;;;;;;6326962;28;20207;-80
2023/07/09 17:15:49;;;;;;;5.28;3.08;;;;;;;;;;6326856;28;20040;-79
2023/07/09 17:18:50;;;;;;;6.07;2.80;;;;;;;;;;6325811;28;20060;-80
2023/07/09 17:21:53;;;;;;;4.70;3.20;;;;;;;;;;6327525;28;20056;-80
2023/07/09 17:24:54;;;;;;;4.90;3.00;;;;;;;;;;6326705;28;20048;-80
2023/07/09 17:27:57;;;;;;;5.93;3.00;;;;;;;;;;6325677;28;20251;-79
2023/07/09 17:30:59;;;;;;;4.97;2.83;;;;;;;;;;6325867;28;20055;-82
2023/07/09 17:34:01;;;;;;;7.03;3.40;;;;;;;;;;6327262;28;20237;-79
2023/07/09 17:37:02;;;;;;;5.18;3.22;;;;;;;;;;6325577;28;20055;-79
2023/07/09 17:40:14;;;;;;;5.53;3.10;;;;;;;;;;6326002;28;20071;-80
2023/07/09 17:43:18;;;;;;;5.30;3.13;;;;;;;;;;6325821;28;20332;-82
2023/07/09 17:46:19;;;;;;;5.78;2.95;;;;;;;;;;6327597;28;20044;-80
2023/07/09 17:49:23;;;;;;;4.47;3.33;;;;;;;;;;6325929;28;20461;-79
2023/07/09 17:52:25;;;;;;;6.45;3.35;;;;;;;;;;6326848;28;20040;-79
2023/07/09 17:55:27;;;;;;;6.65;3.05;;;;;;;;;;6324522;28;20059;-80
2023/07/09 17:58:32;;;;;;;4.57;3.00;;;;;;;;;;6326657;28;20070;-80
2023/07/09 18:01:34;;;;;;;4.93;3.15;;;;;;;;;;6326910;28;20362;-79
2023/07/09 18:04:35;;;;;;;6.93;3.30;;;;;;;;;;6325263;28;20059;-80
2023/07/09 18:07:37;;;;;;;6.53;3.33;;;;;;;;;;6325075;28;20048;-80
2023/07/09 18:10:39;;;;;;;6.10;3.92;;;;;;;;;;6323597;28;20398;-79
2023/07/09 18:13:42;;;;;;;8.82;3.70;;;;;;;;;;6325555;28;20060;-79
2023/07/09 18:16:44;;;;;;;6.47;3.83;;;;;;;;;;6326467;28;20134;-80
2023/07/09 18:19:45;;;;;;;7.10;3.92;;;;;;;;;;6324458;28;20101;-80